Minerva Anna — SVNP — position and weather

sailwx.info

Track history (hours):
 
Tides and Currents Weather Stations Pressure Air Temp Water Temp Dewpoint Dewpoint Depression Visibility Wind Speed Wind Dir Waves Ship Positions

Minerva Anna

Last reported at 2017-Apr-27 18:30 UTC. Time now 2017-Apr-27 18:43 UTC.
Position N 36°08' W 005°26'.

Length 183 m; draft 10.4 m.

Type: Ship (hazmat cat A). MMSI: 240729000.

Date/timePositionNaut miles runAvg speedWind from/ knotsBaromVisibWave heightAir tempDewpointWater temp
2017-Apr-27 18:30N 36°08' W 005°26'0 0.0
2017-Apr-27 18:00N 36°08' W 005°26'0 0.0
2017-Apr-27 17:30N 36°08' W 005°26'0 0.0
2017-Apr-27 17:00N 36°08' W 005°26'0 0.0
2017-Apr-27 16:27N 36°08' W 005°26'0 0.0
2017-Apr-27 16:00N 36°08' W 005°26'0 0.0
2017-Apr-27 15:30N 36°08' W 005°26'0 0.0
2017-Apr-27 15:00N 36°08' W 005°26'0 0.0
2017-Apr-27 13:57N 36°08' W 005°26'0 0.0
2017-Apr-27 13:30N 36°08' W 005°26'0 0.0
2017-Apr-27 13:00N 36°08' W 005°26'0 0.0
2017-Apr-27 12:27N 36°08' W 005°26'0 0.0
2017-Apr-27 12:00N 36°08' W 005°26'0 0.0
2017-Apr-27 11:30N 36°08' W 005°26'0 0.0
2017-Apr-27 11:00N 36°08' W 005°26'0 0.0
2017-Apr-27 10:30N 36°08' W 005°26'0 0.0
2017-Apr-27 10:00N 36°08' W 005°26'0 0.0
2017-Apr-27 09:30N 36°08' W 005°26'0 0.0
2017-Apr-27 09:00N 36°08' W 005°26'0 0.0
2017-Apr-27 08:31N 36°08' W 005°26'0 0.1
2017-Apr-27 08:01N 36°08' W 005°26'2 3.8
2017-Apr-27 07:30N 36°07' W 005°24'4 7.7
2017-Apr-27 07:00N 36°05' W 005°20'3 7.0
2017-Apr-27 06:30N 36°07' W 005°16'0 0.5
2017-Apr-27 06:01N 36°07' W 005°16'1 2.9
2017-Apr-27 05:30N 36°06' W 005°17'1 2.1
2017-Apr-27 05:00N 36°05' W 005°18'510.7
2017-Apr-27 04:30N 36°06' W 005°12'510.1
2017-Apr-27 04:00N 36°06' W 005°05'5 9.9
2017-Apr-27 03:28N 36°06' W 004°59'20110.5
2017-Apr-26 08:20N 37°07' W 001°01'511.9
2017-Apr-26 07:54N 37°10' W 000°55'612.1
2017-Apr-26 07:22N 37°14' W 000°49'512.0
2017-Apr-26 06:57N 37°17' W 000°44'1511.7
2017-Apr-26 05:39N 37°26' W 000°28'211.3
2017-Apr-26 05:30N 37°27' W 000°27'611.3
2017-Apr-26 04:59N 37°30' W 000°21'1411.4
2017-Apr-26 03:48N 37°39' W 000°07'311.5
2017-Apr-26 03:30N 37°41' W 000°05'611.3
2017-Apr-26 02:59N 37°46' W 000°01'611.3
2017-Apr-26 02:29N 37°51' E 000°03'2911.5
2017-Apr-25 23:59N 38°15' E 000°24'611.8
2017-Apr-25 23:30N 38°19' E 000°29'3611.6
2017-Apr-25 20:24N 38°49' E 000°55'511.3
2017-Apr-25 20:00N 38°53' E 000°58'711.1
2017-Apr-25 19:21N 38°60' E 001°01'3210.7
2017-Apr-25 16:24N 39°29' E 001°16'1211.1
2017-Apr-25 15:21N 39°40' E 001°21'411.2
2017-Apr-25 14:59N 39°44' E 001°23'1111.6
2017-Apr-25 14:00N 39°54' E 001°28'611.7
2017-Apr-25 13:30N 39°60' E 001°31'611.4
2017-Apr-25 13:00N 40°05' E 001°34'611.5
2017-Apr-25 12:30N 40°10' E 001°37'611.6
2017-Apr-25 12:00N 40°16' E 001°39'611.5
2017-Apr-25 11:30N 40°21' E 001°42'611.4
2017-Apr-25 11:00N 40°27' E 001°45'611.7
2017-Apr-25 10:30N 40°32' E 001°48'611.9
2017-Apr-25 10:00N 40°38' E 001°50'611.9
2017-Apr-25 09:30N 40°43' E 001°53'611.7
2017-Apr-25 09:01N 40°48' E 001°56'611.8
2017-Apr-25 08:30N 40°54' E 001°59'612.1
2017-Apr-25 08:00N 40°60' E 002°01'612.1
2017-Apr-25 07:31N 41°05' E 002°04'612.3
2017-Apr-25 07:00N 41°11' E 002°08'811.3
2017-Apr-25 06:19N 41°19' E 002°10'2 5.2
2017-Apr-25 05:51N 41°21' E 002°10'0 0.0
2017-Apr-25 05:27N 41°21' E 002°10'0 0.0
2017-Apr-25 05:00N 41°21' E 002°10'0 0.0
2017-Apr-25 04:30N 41°21' E 002°10'0 0.0
2017-Apr-25 04:00N 41°21' E 002°10'0 0.0
2017-Apr-25 03:27N 41°21' E 002°10'0 0.0
2017-Apr-25 03:00N 41°21' E 002°10'0 0.0
2017-Apr-25 02:15N 41°21' E 002°10'0 0.0
2017-Apr-25 01:57N 41°21' E 002°10'0 0.0
2017-Apr-25 01:30N 41°21' E 002°10'0 0.0
2017-Apr-25 00:57N 41°21' E 002°10'0 0.0
2017-Apr-25 00:30N 41°21' E 002°10'0 0.0
2017-Apr-24 23:57N 41°21' E 002°10'0 0.0
2017-Apr-24 23:30N 41°21' E 002°10'0 0.0
2017-Apr-24 22:54N 41°21' E 002°10'0 0.0
2017-Apr-24 22:30N 41°21' E 002°10'0 0.0
2017-Apr-24 21:18N 41°21' E 002°10'0 0.0
2017-Apr-24 20:48N 41°21' E 002°10'0 0.0
2017-Apr-24 20:27N 41°21' E 002°10'0 0.0
2017-Apr-24 19:57N 41°21' E 002°10'0 0.0
2017-Apr-24 19:30N 41°21' E 002°10'0 0.0
2017-Apr-24 18:57N 41°21' E 002°10'0 0.0
2017-Apr-24 18:27N 41°21' E 002°10'0 0.0
2017-Apr-24 17:51N 41°21' E 002°10'0 0.0
2017-Apr-24 15:57N 41°21' E 002°10'0 0.0
2017-Apr-24 15:27N 41°21' E 002°10'0 0.0
2017-Apr-24 14:45N 41°21' E 002°10'0 0.0
2017-Apr-24 14:30N 41°21' E 002°10'0 0.0
2017-Apr-24 13:24N 41°21' E 002°10'0 0.0
2017-Apr-24 12:57N 41°21' E 002°10'0 0.0
2017-Apr-24 12:30N 41°21' E 002°10'0 0.0
2017-Apr-24 11:54N 41°21' E 002°10'0 0.0
2017-Apr-24 11:24N 41°21' E 002°10'0 0.0
2017-Apr-24 10:54N 41°21' E 002°10'0 0.0
2017-Apr-24 10:30N 41°21' E 002°10'0 0.0
2017-Apr-24 10:00N 41°21' E 002°10'0 0.0
2017-Apr-24 09:27N 41°21' E 002°10'0 0.0
2017-Apr-24 08:54N 41°21' E 002°10'0 0.0
2017-Apr-24 08:21N 41°21' E 002°10'0 0.0
2017-Apr-24 07:51N 41°21' E 002°10'0 0.0
2017-Apr-24 07:21N 41°21' E 002°10'0 0.0
2017-Apr-24 06:54N 41°21' E 002°10'0 0.0
2017-Apr-24 06:27N 41°21' E 002°10'0 0.0
2017-Apr-24 05:48N 41°21' E 002°10'0 0.0
2017-Apr-24 05:27N 41°21' E 002°10'0 0.0
2017-Apr-24 04:48N 41°21' E 002°10'0 0.0
2017-Apr-24 04:27N 41°21' E 002°10'0 0.0
2017-Apr-24 03:57N 41°21' E 002°10'0 0.0
2017-Apr-24 03:27N 41°21' E 002°10'0 0.0
2017-Apr-24 03:00N 41°21' E 002°10'0 0.0
2017-Apr-24 02:27N 41°21' E 002°10'0 0.0
2017-Apr-24 02:00N 41°21' E 002°10'0 0.0
2017-Apr-24 01:30N 41°21' E 002°10'0 0.0
2017-Apr-24 00:54N 41°21' E 002°10'0 0.0
2017-Apr-24 00:30N 41°21' E 002°10'0 0.0
2017-Apr-23 23:51N 41°21' E 002°10'0 0.0
2017-Apr-23 23:24N 41°21' E 002°10'0 0.0
2017-Apr-23 22:57N 41°21' E 002°10'0 0.0
2017-Apr-23 22:30N 41°21' E 002°10'0 0.0
2017-Apr-23 21:57N 41°21' E 002°10'0 0.0
2017-Apr-23 21:30N 41°21' E 002°10'0 0.0
2017-Apr-23 21:00N 41°21' E 002°10'0 0.0
2017-Apr-23 20:21N 41°21' E 002°10'0 0.0
2017-Apr-23 19:57N 41°21' E 002°10'0 0.0
2017-Apr-23 19:24N 41°21' E 002°10'0 0.0
2017-Apr-23 19:00N 41°21' E 002°10'0 0.0
2017-Apr-23 18:27N 41°21' E 002°10'0 0.0
2017-Apr-23 17:57N 41°21' E 002°10'0 0.0
2017-Apr-23 17:27N 41°21' E 002°10'0 0.0
2017-Apr-23 17:00N 41°21' E 002°10'0 0.0
2017-Apr-23 16:18N 41°21' E 002°10'0 0.0
2017-Apr-23 15:48N 41°21' E 002°10'0 0.0
2017-Apr-23 15:21N 41°21' E 002°10'0 0.0
2017-Apr-23 14:57N 41°21' E 002°10'0 0.0
2017-Apr-23 14:00N 41°21' E 002°10'0 0.0
2017-Apr-23 13:30N 41°21' E 002°10'0 0.8
2017-Apr-23 13:00N 41°21' E 002°10'3 6.4
2017-Apr-23 12:30N 41°17' E 002°11'1 1.2
2017-Apr-23 11:38N 41°18' E 002°12'0 0.0
2017-Apr-23 11:29N 41°18' E 002°12'0 0.0
2017-Apr-23 10:44N 41°18' E 002°12'0 0.0
2017-Apr-23 09:32N 41°18' E 002°12'0 0.0
2017-Apr-23 09:20N 41°18' E 002°12'0 0.0
2017-Apr-23 08:56N 41°18' E 002°12'0 0.0
2017-Apr-23 08:17N 41°18' E 002°12'0 0.0
2017-Apr-23 07:59N 41°18' E 002°12'0 0.0
2017-Apr-23 07:20N 41°18' E 002°12'0 0.0
2017-Apr-23 06:56N 41°18' E 002°12'0 0.0
2017-Apr-23 06:20N 41°18' E 002°12'0 0.0
2017-Apr-23 05:59N 41°18' E 002°12'0 0.0
2017-Apr-23 05:29N 41°18' E 002°12'0 0.0
2017-Apr-23 04:50N 41°18' E 002°12'0 0.0
2017-Apr-23 04:20N 41°18' E 002°12'0 0.0
2017-Apr-23 03:59N 41°18' E 002°12'0 0.0
2017-Apr-23 03:29N 41°18' E 002°12'0 0.0
2017-Apr-23 02:56N 41°18' E 002°12'0 0.0
2017-Apr-23 02:29N 41°18' E 002°12'0 0.0
2017-Apr-23 01:56N 41°18' E 002°12'0 0.0
2017-Apr-23 01:26N 41°18' E 002°12'0 0.0
2017-Apr-23 00:59N 41°18' E 002°12'0 0.0
2017-Apr-23 00:14N 41°18' E 002°12'0 0.0
2017-Apr-22 23:56N 41°18' E 002°12'0 0.0
2017-Apr-22 23:11N 41°18' E 002°12'0 0.0
2017-Apr-22 22:53N 41°18' E 002°12'0 0.0
2017-Apr-22 22:26N 41°18' E 002°12'0 0.0
2017-Apr-22 21:56N 41°18' E 002°12'0 0.0
2017-Apr-22 21:23N 41°18' E 002°12'0 0.0
2017-Apr-22 20:32N 41°18' E 002°12'0 0.1
2017-Apr-22 20:20N 41°18' E 002°12'0 0.0
2017-Apr-22 19:59N 41°18' E 002°12'0 0.0
2017-Apr-22 19:23N 41°18' E 002°12'0 0.0
2017-Apr-22 18:53N 41°18' E 002°12'0 0.0
2017-Apr-22 18:30N 41°18' E 002°12'0 0.0
2017-Apr-22 18:00N 41°18' E 002°12'0 0.2
2017-Apr-22 17:30N 41°18' E 002°12'1 1.5
2017-Apr-22 17:00N 41°17' E 002°12'4 7.6
2017-Apr-22 16:29N 41°14' E 002°14'510.9
2017-Apr-22 15:59N 41°10' E 002°19'611.6
2017-Apr-22 15:30N 41°05' E 002°23'611.6
2017-Apr-22 15:00N 41°01' E 002°28'611.6
2017-Apr-22 14:30N 40°56' E 002°33'1211.6
2017-Apr-22 13:30N 40°47' E 002°42'611.9
2017-Apr-22 13:00N 40°42' E 002°47'611.9
2017-Apr-22 12:30N 40°38' E 002°52'612.2
2017-Apr-22 12:00N 40°33' E 002°57'612.7
2017-Apr-22 11:30N 40°28' E 003°03'612.7
2017-Apr-22 11:00N 40°23' E 003°08'812.5
2017-Apr-22 10:23N 40°17' E 003°14'612.2
2017-Apr-22 09:55N 40°13' E 003°18'512.0
2017-Apr-22 09:29N 40°08' E 003°23'1112.0
2017-Apr-22 08:34N 39°60' E 003°31'111.7
2017-Apr-22 08:30N 39°59' E 003°32'611.7
2017-Apr-22 08:00N 39°55' E 003°37'611.6
2017-Apr-22 07:30N 39°51' E 003°43'611.5
2017-Apr-22 07:00N 39°46' E 003°47'52410.9
2017-Apr-20 06:58N 36°04' E 013°49'611.7
2017-Apr-20 06:30N 36°01' E 013°54'611.9
2017-Apr-20 06:00N 35°58' E 014°00'612.0
2017-Apr-20 05:30N 35°54' E 014°06'611.9
2017-Apr-20 05:00N 35°51' E 014°13'611.8
2017-Apr-20 04:30N 35°48' E 014°19'611.4
2017-Apr-20 04:00N 35°45' E 014°25'611.6
2017-Apr-20 03:28N 35°47' E 014°32'3 4.7
2017-Apr-20 02:55N 35°49' E 014°33'  
2017-Apr-17 21:32N 35°49' E 014°33'0 0.0
2017-Apr-17 21:23N 35°49' E 014°33'0 0.7
2017-Apr-17 20:59N 35°49' E 014°33'2 4.3
2017-Apr-17 20:30N 35°48' E 014°35'0 0.7
2017-Apr-17 20:00N 35°48' E 014°36'2 3.4
2017-Apr-17 19:29N 35°48' E 014°38'4 9.2
2017-Apr-17 19:00N 35°51' E 014°42'611.3
2017-Apr-17 18:30N 35°56' E 014°44'  
Track history (hours):
 
Tides and Currents Weather Stations Pressure Air Temp Water Temp Dewpoint Dewpoint Depression Visibility Wind Speed Wind Dir Waves Ship Positions

Minerva Anna

Last reported at 2017-Apr-27 18:30 UTC. Time now 2017-Apr-27 18:43 UTC.
Position N 36°08' W 005°26'.

Length 183 m; draft 10.4 m.

Type: Ship (hazmat cat A). MMSI: 240729000.

Date/timePositionNaut miles runAvg speedWind from/ knotsBaromVisibWave heightAir tempDewpointWater temp
2017-Apr-27 18:30N 36°08' W 005°26'0 0.0
2017-Apr-27 18:00N 36°08' W 005°26'0 0.0
2017-Apr-27 17:30N 36°08' W 005°26'0 0.0
2017-Apr-27 17:00N 36°08' W 005°26'0 0.0
2017-Apr-27 16:27N 36°08' W 005°26'0 0.0
2017-Apr-27 16:00N 36°08' W 005°26'0 0.0
2017-Apr-27 15:30N 36°08' W 005°26'0 0.0
2017-Apr-27 15:00N 36°08' W 005°26'0 0.0
2017-Apr-27 13:57N 36°08' W 005°26'0 0.0
2017-Apr-27 13:30N 36°08' W 005°26'0 0.0
2017-Apr-27 13:00N 36°08' W 005°26'0 0.0
2017-Apr-27 12:27N 36°08' W 005°26'0 0.0
2017-Apr-27 12:00N 36°08' W 005°26'0 0.0
2017-Apr-27 11:30N 36°08' W 005°26'0 0.0
2017-Apr-27 11:00N 36°08' W 005°26'0 0.0
2017-Apr-27 10:30N 36°08' W 005°26'0 0.0
2017-Apr-27 10:00N 36°08' W 005°26'0 0.0
2017-Apr-27 09:30N 36°08' W 005°26'0 0.0
2017-Apr-27 09:00N 36°08' W 005°26'0 0.0
2017-Apr-27 08:31N 36°08' W 005°26'0 0.1
2017-Apr-27 08:01N 36°08' W 005°26'2 3.8
2017-Apr-27 07:30N 36°07' W 005°24'4 7.7
2017-Apr-27 07:00N 36°05' W 005°20'3 7.0
2017-Apr-27 06:30N 36°07' W 005°16'0 0.5
2017-Apr-27 06:01N 36°07' W 005°16'1 2.9
2017-Apr-27 05:30N 36°06' W 005°17'1 2.1
2017-Apr-27 05:00N 36°05' W 005°18'510.7
2017-Apr-27 04:30N 36°06' W 005°12'510.1
2017-Apr-27 04:00N 36°06' W 005°05'5 9.9
2017-Apr-27 03:28N 36°06' W 004°59'20110.5
2017-Apr-26 08:20N 37°07' W 001°01'511.9
2017-Apr-26 07:54N 37°10' W 000°55'612.1
2017-Apr-26 07:22N 37°14' W 000°49'512.0
2017-Apr-26 06:57N 37°17' W 000°44'1511.7
2017-Apr-26 05:39N 37°26' W 000°28'211.3
2017-Apr-26 05:30N 37°27' W 000°27'611.3
2017-Apr-26 04:59N 37°30' W 000°21'1411.4
2017-Apr-26 03:48N 37°39' W 000°07'311.5
2017-Apr-26 03:30N 37°41' W 000°05'611.3
2017-Apr-26 02:59N 37°46' W 000°01'611.3
2017-Apr-26 02:29N 37°51' E 000°03'2911.5
2017-Apr-25 23:59N 38°15' E 000°24'611.8
2017-Apr-25 23:30N 38°19' E 000°29'3611.6
2017-Apr-25 20:24N 38°49' E 000°55'511.3
2017-Apr-25 20:00N 38°53' E 000°58'711.1
2017-Apr-25 19:21N 38°60' E 001°01'3210.7
2017-Apr-25 16:24N 39°29' E 001°16'1211.1
2017-Apr-25 15:21N 39°40' E 001°21'411.2
2017-Apr-25 14:59N 39°44' E 001°23'1111.6
2017-Apr-25 14:00N 39°54' E 001°28'611.7
2017-Apr-25 13:30N 39°60' E 001°31'611.4
2017-Apr-25 13:00N 40°05' E 001°34'611.5
2017-Apr-25 12:30N 40°10' E 001°37'611.6
2017-Apr-25 12:00N 40°16' E 001°39'611.5
2017-Apr-25 11:30N 40°21' E 001°42'611.4
2017-Apr-25 11:00N 40°27' E 001°45'611.7
2017-Apr-25 10:30N 40°32' E 001°48'611.9
2017-Apr-25 10:00N 40°38' E 001°50'611.9
2017-Apr-25 09:30N 40°43' E 001°53'611.7
2017-Apr-25 09:01N 40°48' E 001°56'611.8
2017-Apr-25 08:30N 40°54' E 001°59'612.1
2017-Apr-25 08:00N 40°60' E 002°01'612.1
2017-Apr-25 07:31N 41°05' E 002°04'612.3
2017-Apr-25 07:00N 41°11' E 002°08'811.3
2017-Apr-25 06:19N 41°19' E 002°10'2 5.2
2017-Apr-25 05:51N 41°21' E 002°10'0 0.0
2017-Apr-25 05:27N 41°21' E 002°10'0 0.0
2017-Apr-25 05:00N 41°21' E 002°10'0 0.0
2017-Apr-25 04:30N 41°21' E 002°10'0 0.0
2017-Apr-25 04:00N 41°21' E 002°10'0 0.0
2017-Apr-25 03:27N 41°21' E 002°10'0 0.0
2017-Apr-25 03:00N 41°21' E 002°10'0 0.0
2017-Apr-25 02:15N 41°21' E 002°10'0 0.0
2017-Apr-25 01:57N 41°21' E 002°10'0 0.0
2017-Apr-25 01:30N 41°21' E 002°10'0 0.0
2017-Apr-25 00:57N 41°21' E 002°10'0 0.0
2017-Apr-25 00:30N 41°21' E 002°10'0 0.0
2017-Apr-24 23:57N 41°21' E 002°10'0 0.0
2017-Apr-24 23:30N 41°21' E 002°10'0 0.0
2017-Apr-24 22:54N 41°21' E 002°10'0 0.0
2017-Apr-24 22:30N 41°21' E 002°10'0 0.0
2017-Apr-24 21:18N 41°21' E 002°10'0 0.0
2017-Apr-24 20:48N 41°21' E 002°10'0 0.0
2017-Apr-24 20:27N 41°21' E 002°10'0 0.0
2017-Apr-24 19:57N 41°21' E 002°10'0 0.0
2017-Apr-24 19:30N 41°21' E 002°10'0 0.0
2017-Apr-24 18:57N 41°21' E 002°10'0 0.0
2017-Apr-24 18:27N 41°21' E 002°10'0 0.0
2017-Apr-24 17:51N 41°21' E 002°10'0 0.0
2017-Apr-24 15:57N 41°21' E 002°10'0 0.0
2017-Apr-24 15:27N 41°21' E 002°10'0 0.0
2017-Apr-24 14:45N 41°21' E 002°10'0 0.0
2017-Apr-24 14:30N 41°21' E 002°10'0 0.0
2017-Apr-24 13:24N 41°21' E 002°10'0 0.0
2017-Apr-24 12:57N 41°21' E 002°10'0 0.0
2017-Apr-24 12:30N 41°21' E 002°10'0 0.0
2017-Apr-24 11:54N 41°21' E 002°10'0 0.0
2017-Apr-24 11:24N 41°21' E 002°10'0 0.0
2017-Apr-24 10:54N 41°21' E 002°10'0 0.0
2017-Apr-24 10:30N 41°21' E 002°10'0 0.0
2017-Apr-24 10:00N 41°21' E 002°10'0 0.0
2017-Apr-24 09:27N 41°21' E 002°10'0 0.0
2017-Apr-24 08:54N 41°21' E 002°10'0 0.0
2017-Apr-24 08:21N 41°21' E 002°10'0 0.0
2017-Apr-24 07:51N 41°21' E 002°10'0 0.0
2017-Apr-24 07:21N 41°21' E 002°10'0 0.0
2017-Apr-24 06:54N 41°21' E 002°10'0 0.0
2017-Apr-24 06:27N 41°21' E 002°10'0 0.0
2017-Apr-24 05:48N 41°21' E 002°10'0 0.0
2017-Apr-24 05:27N 41°21' E 002°10'0 0.0
2017-Apr-24 04:48N 41°21' E 002°10'0 0.0
2017-Apr-24 04:27N 41°21' E 002°10'0 0.0
2017-Apr-24 03:57N 41°21' E 002°10'0 0.0
2017-Apr-24 03:27N 41°21' E 002°10'0 0.0
2017-Apr-24 03:00N 41°21' E 002°10'0 0.0
2017-Apr-24 02:27N 41°21' E 002°10'0 0.0
2017-Apr-24 02:00N 41°21' E 002°10'0 0.0
2017-Apr-24 01:30N 41°21' E 002°10'0 0.0
2017-Apr-24 00:54N 41°21' E 002°10'0 0.0
2017-Apr-24 00:30N 41°21' E 002°10'0 0.0
2017-Apr-23 23:51N 41°21' E 002°10'0 0.0
2017-Apr-23 23:24N 41°21' E 002°10'0 0.0
2017-Apr-23 22:57N 41°21' E 002°10'0 0.0
2017-Apr-23 22:30N 41°21' E 002°10'0 0.0
2017-Apr-23 21:57N 41°21' E 002°10'0 0.0
2017-Apr-23 21:30N 41°21' E 002°10'0 0.0
2017-Apr-23 21:00N 41°21' E 002°10'0 0.0
2017-Apr-23 20:21N 41°21' E 002°10'0 0.0
2017-Apr-23 19:57N 41°21' E 002°10'0 0.0
2017-Apr-23 19:24N 41°21' E 002°10'0 0.0
2017-Apr-23 19:00N 41°21' E 002°10'0 0.0
2017-Apr-23 18:27N 41°21' E 002°10'0 0.0
2017-Apr-23 17:57N 41°21' E 002°10'0 0.0
2017-Apr-23 17:27N 41°21' E 002°10'0 0.0
2017-Apr-23 17:00N 41°21' E 002°10'0 0.0
2017-Apr-23 16:18N 41°21' E 002°10'0 0.0
2017-Apr-23 15:48N 41°21' E 002°10'0 0.0
2017-Apr-23 15:21N 41°21' E 002°10'0 0.0
2017-Apr-23 14:57N 41°21' E 002°10'0 0.0
2017-Apr-23 14:00N 41°21' E 002°10'0 0.0
2017-Apr-23 13:30N 41°21' E 002°10'0 0.8
2017-Apr-23 13:00N 41°21' E 002°10'3 6.4
2017-Apr-23 12:30N 41°17' E 002°11'1 1.2
2017-Apr-23 11:38N 41°18' E 002°12'0 0.0
2017-Apr-23 11:29N 41°18' E 002°12'0 0.0
2017-Apr-23 10:44N 41°18' E 002°12'0 0.0
2017-Apr-23 09:32N 41°18' E 002°12'0 0.0
2017-Apr-23 09:20N 41°18' E 002°12'0 0.0
2017-Apr-23 08:56N 41°18' E 002°12'0 0.0
2017-Apr-23 08:17N 41°18' E 002°12'0 0.0
2017-Apr-23 07:59N 41°18' E 002°12'0 0.0
2017-Apr-23 07:20N 41°18' E 002°12'0 0.0
2017-Apr-23 06:56N 41°18' E 002°12'0 0.0
2017-Apr-23 06:20N 41°18' E 002°12'0 0.0
2017-Apr-23 05:59N 41°18' E 002°12'0 0.0
2017-Apr-23 05:29N 41°18' E 002°12'0 0.0
2017-Apr-23 04:50N 41°18' E 002°12'0 0.0
2017-Apr-23 04:20N 41°18' E 002°12'0 0.0
2017-Apr-23 03:59N 41°18' E 002°12'0 0.0
2017-Apr-23 03:29N 41°18' E 002°12'0 0.0
2017-Apr-23 02:56N 41°18' E 002°12'0 0.0
2017-Apr-23 02:29N 41°18' E 002°12'0 0.0
2017-Apr-23 01:56N 41°18' E 002°12'0 0.0
2017-Apr-23 01:26N 41°18' E 002°12'0 0.0
2017-Apr-23 00:59N 41°18' E 002°12'0 0.0
2017-Apr-23 00:14N 41°18' E 002°12'0 0.0
2017-Apr-22 23:56N 41°18' E 002°12'0 0.0
2017-Apr-22 23:11N 41°18' E 002°12'0 0.0
2017-Apr-22 22:53N 41°18' E 002°12'0 0.0
2017-Apr-22 22:26N 41°18' E 002°12'0 0.0
2017-Apr-22 21:56N 41°18' E 002°12'0 0.0
2017-Apr-22 21:23N 41°18' E 002°12'0 0.0
2017-Apr-22 20:32N 41°18' E 002°12'0 0.1
2017-Apr-22 20:20N 41°18' E 002°12'0 0.0
2017-Apr-22 19:59N 41°18' E 002°12'0 0.0
2017-Apr-22 19:23N 41°18' E 002°12'0 0.0
2017-Apr-22 18:53N 41°18' E 002°12'0 0.0
2017-Apr-22 18:30N 41°18' E 002°12'0 0.0
2017-Apr-22 18:00N 41°18' E 002°12'0 0.2
2017-Apr-22 17:30N 41°18' E 002°12'1 1.5
2017-Apr-22 17:00N 41°17' E 002°12'4 7.6
2017-Apr-22 16:29N 41°14' E 002°14'510.9
2017-Apr-22 15:59N 41°10' E 002°19'611.6
2017-Apr-22 15:30N 41°05' E 002°23'611.6
2017-Apr-22 15:00N 41°01' E 002°28'611.6
2017-Apr-22 14:30N 40°56' E 002°33'1211.6
2017-Apr-22 13:30N 40°47' E 002°42'611.9
2017-Apr-22 13:00N 40°42' E 002°47'611.9
2017-Apr-22 12:30N 40°38' E 002°52'612.2
2017-Apr-22 12:00N 40°33' E 002°57'612.7
2017-Apr-22 11:30N 40°28' E 003°03'612.7
2017-Apr-22 11:00N 40°23' E 003°08'812.5
2017-Apr-22 10:23N 40°17' E 003°14'612.2
2017-Apr-22 09:55N 40°13' E 003°18'512.0
2017-Apr-22 09:29N 40°08' E 003°23'1112.0
2017-Apr-22 08:34N 39°60' E 003°31'111.7
2017-Apr-22 08:30N 39°59' E 003°32'611.7
2017-Apr-22 08:00N 39°55' E 003°37'611.6
2017-Apr-22 07:30N 39°51' E 003°43'611.5
2017-Apr-22 07:00N 39°46' E 003°47'52410.9
2017-Apr-20 06:58N 36°04' E 013°49'611.7
2017-Apr-20 06:30N 36°01' E 013°54'611.9
2017-Apr-20 06:00N 35°58' E 014°00'612.0
2017-Apr-20 05:30N 35°54' E 014°06'611.9
2017-Apr-20 05:00N 35°51' E 014°13'611.8
2017-Apr-20 04:30N 35°48' E 014°19'611.4
2017-Apr-20 04:00N 35°45' E 014°25'611.6
2017-Apr-20 03:28N 35°47' E 014°32'3 4.7
2017-Apr-20 02:55N 35°49' E 014°33'  
2017-Apr-17 21:32N 35°49' E 014°33'0 0.0
2017-Apr-17 21:23N 35°49' E 014°33'0 0.7
2017-Apr-17 20:59N 35°49' E 014°33'2 4.3
2017-Apr-17 20:30N 35°48' E 014°35'0 0.7
2017-Apr-17 20:00N 35°48' E 014°36'2 3.4
2017-Apr-17 19:29N 35°48' E 014°38'4 9.2
2017-Apr-17 19:00N 35°51' E 014°42'611.3
2017-Apr-17 18:30N 35°56' E 014°44'  

Dump ship's entire track history